createdAt,value
2019-03-03T00:01:03.778Z,80.46
2019-03-03T00:03:36.828Z,80.36
2019-03-03T00:06:09.817Z,80.96
2019-03-03T00:08:42.803Z,80.60
2019-03-03T00:11:15.814Z,80.39
2019-03-03T00:13:48.899Z,80.39
2019-03-03T00:16:22.356Z,80.10
2019-03-03T00:18:55.839Z,79.39
2019-03-03T00:21:28.167Z,78.89
2019-03-03T00:24:00.869Z,78.65
2019-03-03T00:26:33.823Z,78.64
2019-03-03T00:29:07.410Z,78.44
2019-03-03T00:31:40.824Z,77.69
2019-03-03T00:34:12.924Z,76.74
2019-03-03T00:37:06.495Z,77.22
2019-03-03T00:39:59.916Z,76.97
2019-03-03T00:42:55.913Z,76.96
2019-03-03T00:45:37.257Z,76.73
2019-03-03T00:48:27.918Z,76.93
2019-03-03T00:51:15.383Z,76.51
2019-03-03T00:54:05.497Z,76.33
2019-03-03T00:56:53.344Z,76.77
2019-03-03T00:59:52.057Z,76.73
2019-03-03T01:02:54.786Z,76.62
2019-03-03T01:05:47.528Z,77.29
2019-03-03T01:08:28.025Z,76.99
2019-03-03T01:11:20.862Z,76.58
2019-03-03T01:14:12.592Z,76.97
2019-03-03T01:17:07.188Z,76.90
2019-03-03T01:19:49.319Z,77.64
2019-03-03T01:22:38.871Z,77.69
2019-03-03T01:25:11.318Z,77.88
2019-03-03T01:27:45.979Z,78.14
2019-03-03T01:30:18.992Z,77.82
2019-03-03T01:32:52.152Z,77.71
2019-03-03T01:35:24.423Z,78.05
2019-03-03T01:37:57.281Z,78.29
2019-03-03T01:40:30.292Z,78.13
2019-03-03T01:43:01.512Z,78.19
2019-03-03T01:45:34.294Z,77.98
2019-03-03T01:48:06.385Z,78.18
2019-03-03T01:50:39.241Z,78.02
2019-03-03T01:53:12.364Z,78.52
2019-03-03T01:55:46.258Z,78.01
2019-03-03T01:58:18.243Z,78.08
2019-03-03T02:00:51.406Z,78.10
2019-03-03T02:03:25.551Z,78.05
2019-03-03T02:05:59.482Z,77.68
2019-03-03T02:08:32.223Z,77.67
2019-03-03T02:11:05.444Z,77.97
2019-03-03T02:13:38.578Z,78.01
2019-03-03T02:16:13.184Z,77.98
2019-03-03T02:18:47.263Z,77.79
2019-03-03T02:21:20.630Z,77.70
2019-03-03T02:23:56.075Z,77.33
2019-03-03T02:26:28.557Z,78.03
2019-03-03T02:29:02.254Z,78.04
2019-03-03T02:31:33.484Z,77.49
2019-03-03T02:34:07.699Z,77.07
2019-03-03T02:36:39.311Z,77.73
2019-03-03T02:39:22.425Z,77.32
2019-03-03T02:41:55.496Z,77.69
2019-03-03T02:44:28.649Z,78.53
2019-03-03T02:47:00.413Z,78.36
2019-03-03T02:49:32.681Z,78.57
2019-03-03T02:52:06.597Z,78.94
2019-03-03T02:54:39.449Z,78.59
2019-03-03T02:57:11.936Z,78.54
2019-03-03T03:00:33.334Z,78.63
2019-03-03T03:03:09.535Z,79.07
2019-03-03T03:06:11.443Z,78.80
2019-03-03T03:09:07.569Z,78.71
2019-03-03T03:12:01.556Z,78.88
2019-03-03T03:14:38.185Z,78.89
2019-03-03T03:17:46.740Z,78.65
2019-03-03T03:20:25.530Z,78.96
2019-03-03T03:23:10.706Z,78.47
2019-03-03T03:26:02.329Z,78.80
2019-03-03T03:28:59.861Z,78.28
2019-03-03T03:31:51.395Z,78.64
2019-03-03T03:34:27.096Z,78.41
2019-03-03T03:37:06.396Z,78.70
2019-03-03T03:39:49.239Z,78.58
2019-03-03T03:42:27.760Z,78.60
2019-03-03T03:45:28.666Z,79.03
2019-03-03T03:48:13.758Z,78.66
2019-03-03T03:50:58.441Z,79.08
2019-03-03T03:53:52.208Z,78.63
2019-03-03T03:56:35.448Z,79.22
2019-03-03T03:59:21.576Z,79.72
2019-03-03T04:02:23.034Z,80.09
2019-03-03T04:05:19.545Z,80.46
2019-03-03T04:08:21.422Z,80.82
2019-03-03T04:11:15.018Z,80.62
2019-03-03T04:14:03.999Z,80.55
2019-03-03T04:16:58.793Z,81.09
2019-03-03T04:19:47.099Z,81.52
2019-03-03T04:22:47.205Z,81.89
2019-03-03T04:25:53.692Z,82.61
2019-03-03T04:28:36.094Z,83.67
2019-03-03T04:31:31.357Z,83.23
2019-03-03T04:34:13.112Z,83.66
2019-03-03T04:37:05.593Z,83.64
2019-03-03T04:39:56.096Z,84.22
2019-03-03T04:42:37.938Z,83.53
2019-03-03T04:45:17.634Z,83.29
2019-03-03T04:48:00.956Z,83.67
2019-03-03T04:50:56.262Z,83.21
2019-03-03T04:53:45.239Z,82.78
2019-03-03T04:56:40.747Z,82.83
2019-03-03T04:59:29.218Z,83.79
2019-03-03T05:02:15.983Z,84.04
2019-03-03T05:05:05.759Z,84.11
2019-03-03T05:07:54.690Z,84.51
2019-03-03T05:10:50.175Z,84.63
2019-03-03T05:13:25.378Z,84.90
2019-03-03T05:16:16.693Z,85.17
2019-03-03T05:19:01.224Z,85.17
2019-03-03T05:21:34.426Z,85.04
2019-03-03T05:24:08.304Z,85.15
2019-03-03T05:26:39.553Z,84.75
2019-03-03T05:29:13.205Z,84.91
2019-03-03T05:31:46.393Z,84.47
2019-03-03T05:34:19.962Z,84.15
2019-03-03T05:36:52.675Z,84.60
2019-03-03T05:39:25.282Z,85.16
2019-03-03T05:41:58.383Z,85.44
2019-03-03T05:44:31.505Z,84.88
2019-03-03T05:47:04.101Z,85.36
2019-03-03T05:49:35.786Z,85.41
2019-03-03T05:52:10.187Z,85.43
2019-03-03T05:54:42.982Z,84.68
2019-03-03T05:57:14.552Z,85.02
2019-03-03T05:59:46.491Z,85.39
2019-03-03T06:02:20.482Z,85.40
2019-03-03T06:04:54.302Z,85.59
2019-03-03T06:07:27.439Z,85.27
2019-03-03T06:10:01.957Z,85.00
2019-03-03T06:12:33.511Z,84.97
2019-03-03T06:15:09.012Z,84.92
2019-03-03T06:17:40.192Z,84.49
2019-03-03T06:20:14.510Z,83.89
2019-03-03T06:22:46.591Z,84.22
2019-03-03T06:25:18.579Z,84.17
2019-03-03T06:27:52.501Z,83.81
2019-03-03T06:30:26.467Z,83.36
2019-03-03T06:32:57.660Z,82.93
2019-03-03T06:35:31.494Z,83.01
2019-03-03T06:38:04.624Z,83.14
2019-03-03T06:40:35.899Z,83.16
2019-03-03T06:43:07.669Z,83.07
2019-03-03T06:45:39.794Z,82.25
2019-03-03T06:48:13.736Z,82.02
2019-03-03T06:50:46.770Z,81.67
2019-03-03T06:53:19.786Z,81.97
2019-03-03T06:55:52.716Z,81.76
2019-03-03T06:58:24.626Z,80.83
2019-03-03T07:00:56.047Z,81.63
2019-03-03T07:03:29.658Z,81.19
2019-03-03T07:06:00.835Z,81.66
2019-03-03T07:08:33.803Z,81.85
2019-03-03T07:11:07.552Z,81.87
2019-03-03T07:13:39.846Z,81.36
2019-03-03T07:16:13.992Z,82.00
2019-03-03T07:18:45.855Z,81.95
2019-03-03T07:21:19.978Z,82.45
2019-03-03T07:23:52.907Z,81.85
2019-03-03T07:26:24.740Z,81.90
2019-03-03T07:28:57.889Z,82.19
2019-03-03T07:31:31.878Z,81.91
2019-03-03T07:34:05.076Z,82.32
2019-03-03T07:36:39.817Z,82.53
2019-03-03T07:39:19.485Z,82.26
2019-03-03T07:41:51.888Z,82.52
2019-03-03T07:44:23.257Z,82.22
2019-03-03T07:46:54.888Z,81.68
2019-03-03T07:49:29.026Z,80.97
2019-03-03T07:52:02.096Z,80.86
2019-03-03T07:54:33.839Z,79.97
2019-03-03T07:57:06.952Z,80.15
2019-03-03T07:59:40.005Z,79.81
2019-03-03T08:02:14.061Z,79.35
2019-03-03T08:04:45.986Z,79.31
2019-03-03T08:07:17.826Z,78.94
2019-03-03T08:09:48.999Z,78.79
2019-03-03T08:12:22.515Z,78.49
2019-03-03T08:14:54.940Z,77.82
2019-03-03T08:17:27.443Z,78.44
2019-03-03T08:20:01.662Z,78.34
2019-03-03T08:22:34.399Z,77.90
2019-03-03T08:25:07.711Z,78.50
2019-03-03T08:27:39.935Z,77.79
2019-03-03T08:30:12.869Z,78.35
2019-03-03T08:32:46.214Z,77.23
2019-03-03T08:35:18.110Z,77.11
2019-03-03T08:37:51.300Z,77.66
2019-03-03T08:40:24.263Z,77.33
2019-03-03T08:43:12.176Z,77.27
2019-03-03T08:46:05.485Z,78.17
2019-03-03T08:48:53.503Z,78.47
2019-03-03T08:51:39.397Z,78.71
2019-03-03T08:54:30.863Z,78.88
2019-03-03T08:57:21.149Z,79.29
2019-03-03T09:00:26.645Z,79.29
2019-03-03T09:03:12.958Z,79.38
2019-03-03T09:06:09.590Z,79.38
2019-03-03T09:09:04.355Z,79.28
2019-03-03T09:12:08.555Z,78.13
2019-03-03T09:15:10.872Z,77.71
2019-03-03T09:18:20.741Z,77.21
2019-03-03T09:21:11.904Z,77.51
2019-03-03T09:23:51.420Z,76.66
2019-03-03T09:26:45.752Z,76.48
2019-03-03T09:29:43.650Z,76.27
2019-03-03T09:32:38.001Z,74.97
2019-03-03T09:35:27.504Z,74.43
2019-03-03T09:38:15.829Z,73.95
2019-03-03T09:40:57.825Z,71.03
2019-03-03T09:43:39.209Z,72.55
2019-03-03T09:46:19.881Z,71.99
2019-03-03T09:49:20.454Z,71.95
2019-03-03T09:52:16.562Z,72.74
2019-03-03T09:55:20.638Z,71.33
2019-03-03T09:58:24.473Z,70.37
2019-03-03T10:01:08.747Z,70.51
2019-03-03T10:04:05.038Z,69.12
2019-03-03T10:06:55.431Z,67.54
2019-03-03T10:09:50.816Z,67.17
2019-03-03T10:12:49.304Z,67.09
2019-03-03T10:15:31.151Z,66.95
2019-03-03T10:18:26.186Z,66.58
2019-03-03T10:21:35.874Z,65.18
2019-03-03T10:24:26.175Z,64.98
2019-03-03T10:27:15.831Z,64.32
2019-03-03T10:30:26.794Z,65.10
2019-03-03T10:33:39.332Z,66.05
2019-03-03T10:36:30.166Z,66.13
2019-03-03T10:39:30.041Z,66.43
2019-03-03T10:42:37.855Z,64.64
2019-03-03T10:45:30.913Z,65.34
2019-03-03T10:48:29.439Z,63.83
2019-03-03T10:51:20.701Z,64.50
2019-03-03T10:54:20.777Z,64.48
2019-03-03T10:57:17.803Z,63.85
2019-03-03T11:00:27.154Z,64.89
2019-03-03T11:03:12.852Z,64.36
2019-03-03T11:06:12.231Z,64.18
2019-03-03T11:09:11.868Z,65.19
2019-03-03T11:12:03.010Z,64.94
2019-03-03T11:14:49.876Z,64.05
2019-03-03T11:17:31.463Z,63.04
2019-03-03T11:20:12.051Z,63.18
2019-03-03T11:23:02.075Z,63.11
2019-03-03T11:25:53.470Z,61.00
2019-03-03T11:28:44.304Z,59.86
2019-03-03T11:31:44.193Z,60.04
2019-03-03T11:34:54.614Z,59.64
2019-03-03T11:37:50.885Z,57.10
2019-03-03T11:40:44.926Z,56.46
2019-03-03T11:43:31.694Z,58.03
2019-03-03T11:46:20.750Z,58.10
2019-03-03T11:49:13.012Z,59.00
2019-03-03T11:52:06.267Z,56.62
2019-03-03T11:54:56.868Z,55.50
2019-03-03T11:57:54.038Z,55.17
2019-03-03T12:00:43.607Z,55.90
2019-03-03T12:03:51.041Z,55.79
2019-03-03T12:06:42.083Z,56.56
2019-03-03T12:09:44.406Z,55.33
2019-03-03T12:12:38.963Z,55.17
2019-03-03T12:15:18.516Z,54.19
2019-03-03T12:18:08.307Z,53.75
2019-03-03T12:21:11.507Z,54.43
2019-03-03T12:23:59.037Z,54.89
2019-03-03T12:26:38.562Z,54.11
2019-03-03T12:29:34.832Z,52.85
2019-03-03T12:32:25.315Z,52.80
2019-03-03T12:35:27.843Z,52.44
2019-03-03T12:38:10.206Z,51.64
2019-03-03T12:41:00.994Z,50.38
2019-03-03T12:43:58.270Z,50.48
2019-03-03T12:46:47.143Z,50.99
2019-03-03T12:49:40.038Z,50.69
2019-03-03T12:52:39.594Z,50.63
2019-03-03T12:55:18.951Z,50.02
2019-03-03T12:58:19.961Z,48.75
2019-03-03T13:01:09.939Z,49.31
2019-03-03T13:04:05.465Z,48.72
2019-03-03T13:06:58.978Z,49.14
2019-03-03T13:09:56.450Z,49.77
2019-03-03T13:12:44.863Z,49.34
2019-03-03T13:15:39.905Z,49.57
2019-03-03T13:18:29.798Z,50.31
2019-03-03T13:21:32.009Z,50.40
2019-03-03T13:24:20.539Z,49.82
2019-03-03T13:27:06.498Z,50.10
2019-03-03T13:30:00.651Z,50.17
2019-03-03T13:32:55.367Z,51.24
2019-03-03T13:35:44.899Z,51.47
2019-03-03T13:38:47.821Z,50.71
2019-03-03T13:41:41.416Z,50.07
2019-03-03T13:44:14.574Z,50.63
2019-03-03T13:46:46.688Z,50.40
2019-03-03T13:49:21.324Z,49.23
2019-03-03T13:51:52.531Z,49.07
2019-03-03T13:54:25.453Z,48.90
2019-03-03T13:56:56.660Z,48.32
2019-03-03T13:59:30.652Z,49.02
2019-03-03T14:02:05.351Z,49.29
2019-03-03T14:04:37.756Z,48.70
2019-03-03T14:07:10.802Z,49.14
2019-03-03T14:09:43.643Z,48.93
2019-03-03T14:12:16.733Z,48.68
2019-03-03T14:14:49.747Z,48.83
2019-03-03T14:17:24.398Z,49.26
2019-03-03T14:19:55.624Z,47.13
2019-03-03T14:22:26.895Z,47.27
2019-03-03T14:25:00.691Z,47.35
2019-03-03T14:27:33.723Z,47.93
2019-03-03T14:30:11.508Z,48.66
2019-03-03T14:32:43.636Z,48.80
2019-03-03T14:35:16.766Z,50.05
2019-03-03T14:37:50.830Z,50.42
2019-03-03T14:40:24.921Z,50.55
2019-03-03T14:42:58.843Z,50.21
2019-03-03T14:45:31.852Z,50.99
2019-03-03T14:48:03.927Z,50.62
2019-03-03T14:50:37.743Z,51.11
2019-03-03T14:53:09.974Z,50.68
2019-03-03T14:55:41.154Z,50.50
2019-03-03T14:58:14.755Z,51.27
2019-03-03T15:00:46.927Z,51.03
2019-03-03T15:03:20.971Z,51.57
2019-03-03T15:05:55.355Z,51.70
2019-03-03T15:08:28.103Z,50.53
2019-03-03T15:11:02.035Z,49.87
2019-03-03T15:13:34.844Z,49.35
2019-03-03T15:16:08.854Z,48.37
2019-03-03T15:18:40.315Z,49.07
2019-03-03T15:21:13.108Z,49.36
2019-03-03T15:23:47.027Z,49.16
2019-03-03T15:26:21.040Z,50.08
2019-03-03T15:28:54.011Z,50.92
2019-03-03T15:31:37.315Z,51.26
2019-03-03T15:34:02.799Z,51.37
2019-03-03T15:36:37.073Z,51.55
2019-03-03T15:39:11.466Z,51.67
2019-03-03T15:41:44.283Z,52.13
2019-03-03T15:44:15.597Z,52.14
2019-03-03T15:46:49.090Z,52.08
2019-03-03T15:49:22.103Z,51.82
2019-03-03T15:51:53.331Z,52.62
2019-03-03T15:54:28.781Z,52.34
2019-03-03T15:56:59.990Z,53.05
2019-03-03T16:06:18.882Z,54.09
2019-03-03T16:08:50.596Z,53.08
2019-03-03T16:11:22.214Z,54.17
2019-03-03T16:13:56.906Z,53.77
2019-03-03T16:16:29.485Z,54.32
2019-03-03T16:19:02.196Z,53.77
2019-03-03T16:21:38.276Z,53.98
2019-03-03T16:24:10.098Z,54.53
2019-03-03T16:26:41.381Z,54.71
2019-03-03T16:29:14.937Z,54.64
2019-03-03T16:31:49.923Z,54.53
2019-03-03T16:34:23.591Z,55.12
2019-03-03T16:36:57.849Z,55.35
2019-03-03T16:39:31.230Z,56.16
2019-03-03T16:42:02.472Z,56.85
2019-03-03T16:44:35.408Z,57.32
2019-03-03T16:47:06.623Z,57.82
2019-03-03T16:49:39.646Z,58.04
2019-03-03T16:52:13.374Z,58.72
2019-03-03T16:54:47.233Z,58.89
2019-03-03T16:57:20.518Z,58.82
2019-03-03T16:59:54.521Z,59.37
2019-03-03T17:02:28.085Z,59.16
2019-03-03T17:05:03.119Z,60.15
2019-03-03T17:07:35.314Z,59.68
2019-03-03T17:10:08.360Z,60.34
2019-03-03T17:12:41.291Z,61.34
2019-03-03T17:15:20.637Z,61.84
2019-03-03T17:17:53.741Z,61.62
2019-03-03T17:20:25.451Z,62.37
2019-03-03T17:22:58.711Z,62.54
2019-03-03T17:25:33.984Z,61.73
2019-03-03T17:28:05.623Z,62.60
2019-03-03T17:30:47.135Z,62.10
2019-03-03T17:33:20.779Z,63.57
2019-03-03T17:35:53.805Z,62.74
2019-03-03T17:38:27.045Z,63.15
2019-03-03T17:40:58.834Z,62.62
2019-03-03T17:43:32.808Z,63.22
2019-03-03T17:46:06.798Z,62.69
2019-03-03T17:48:42.309Z,62.50
2019-03-03T17:51:14.718Z,63.57
2019-03-03T17:53:47.950Z,63.62
2019-03-03T17:56:23.370Z,64.06
2019-03-03T17:58:55.835Z,64.09
2019-03-03T18:01:30.172Z,64.07
2019-03-03T18:04:02.618Z,63.96
2019-03-03T18:06:38.973Z,63.75
2019-03-03T18:09:11.365Z,63.50
2019-03-03T18:11:45.575Z,63.84
2019-03-03T18:14:19.993Z,64.40
2019-03-03T18:20:18.872Z,64.56
2019-03-03T18:22:50.911Z,64.55
2019-03-03T18:25:22.524Z,64.33
2019-03-03T18:27:56.002Z,65.76
2019-03-03T18:30:29.007Z,65.60
2019-03-03T18:33:08.635Z,66.30
2019-03-03T18:35:41.421Z,65.41
2019-03-03T18:38:12.840Z,66.08
2019-03-03T18:40:45.321Z,66.15
2019-03-03T18:43:16.778Z,66.18
2019-03-03T18:45:51.103Z,66.32
2019-03-03T18:48:24.036Z,65.74
2019-03-03T18:50:58.043Z,67.09
2019-03-03T18:53:29.252Z,66.48
2019-03-03T18:56:03.070Z,67.11
2019-03-03T18:58:35.972Z,66.66
2019-03-03T19:01:09.956Z,66.99
2019-03-03T19:03:42.060Z,66.68
2019-03-03T19:06:15.091Z,67.01
2019-03-03T19:08:46.946Z,66.38
2019-03-03T19:11:18.196Z,66.02
2019-03-03T19:13:53.644Z,66.99
2019-03-03T19:16:26.198Z,66.18
2019-03-03T19:19:01.767Z,66.78
2019-03-03T19:21:35.698Z,66.62
2019-03-03T19:24:08.312Z,66.62
2019-03-03T19:26:41.081Z,66.45
2019-03-03T19:29:13.106Z,66.41
2019-03-03T19:31:47.286Z,66.41
2019-03-03T19:34:20.861Z,65.51
2019-03-03T19:36:53.413Z,65.32
2019-03-03T19:39:24.727Z,65.06
2019-03-03T19:42:00.008Z,64.14
2019-03-03T19:44:33.035Z,63.13
2019-03-03T19:47:06.158Z,63.81
2019-03-03T19:49:38.386Z,61.52
2019-03-03T19:52:12.344Z,62.16
2019-03-03T19:54:48.042Z,61.97
2019-03-03T19:57:19.337Z,60.65
2019-03-03T19:59:53.455Z,59.81
2019-03-03T20:02:26.317Z,60.92
2019-03-03T20:05:00.503Z,60.78
2019-03-03T20:07:31.782Z,61.46
2019-03-03T20:10:05.002Z,62.04
2019-03-03T20:12:39.349Z,61.51
2019-03-03T20:15:12.107Z,61.29
2019-03-03T20:17:44.588Z,61.63
2019-03-03T20:20:18.876Z,62.62
2019-03-03T20:26:17.125Z,62.63
2019-03-03T20:28:50.743Z,61.45
2019-03-03T20:31:24.517Z,61.07
2019-03-03T20:34:12.155Z,60.75
2019-03-03T20:36:44.632Z,61.61
2019-03-03T20:39:20.972Z,61.83
2019-03-03T20:41:53.487Z,61.99
2019-03-03T20:44:24.738Z,60.10
2019-03-03T20:46:57.474Z,60.26
2019-03-03T20:49:34.204Z,60.55
2019-03-03T20:52:06.713Z,59.52
2019-03-03T20:54:38.499Z,59.77
2019-03-03T20:57:11.688Z,60.88
2019-03-03T20:59:43.298Z,61.89
2019-03-03T21:02:17.548Z,60.96
2019-03-03T21:04:50.519Z,61.69
2019-03-03T21:07:23.506Z,60.17
2019-03-03T21:09:57.530Z,60.37
2019-03-03T21:12:31.159Z,60.55
2019-03-03T21:15:05.701Z,61.03
2019-03-03T21:17:44.850Z,60.63
2019-03-03T21:20:18.581Z,61.16
2019-03-03T21:22:52.315Z,62.20
2019-03-03T21:25:25.562Z,61.81
2019-03-03T21:27:58.712Z,60.32
2019-03-03T21:30:31.562Z,60.74
2019-03-03T21:33:02.766Z,60.45
2019-03-03T21:35:36.814Z,59.86
2019-03-03T21:38:09.744Z,60.10
2019-03-03T21:40:40.998Z,60.48
2019-03-03T21:43:14.898Z,60.69
2019-03-03T21:45:49.758Z,61.58
2019-03-03T21:48:21.921Z,61.10
2019-03-03T21:50:55.593Z,61.11
2019-03-03T21:53:28.820Z,59.43
2019-03-03T21:56:04.249Z,60.60
2019-03-03T21:58:36.860Z,59.16
2019-03-03T22:01:09.761Z,59.39
2019-03-03T22:03:41.078Z,59.76
2019-03-03T22:06:13.022Z,59.23
2019-03-03T22:08:44.427Z,59.58
2019-03-03T22:11:18.001Z,58.31
2019-03-03T22:13:51.001Z,58.88
2019-03-03T22:16:24.794Z,57.47
2019-03-03T22:18:55.959Z,58.29
2019-03-03T22:21:29.643Z,58.02
2019-03-03T22:24:02.991Z,56.62
2019-03-03T22:26:36.923Z,56.54
2019-03-03T22:29:09.928Z,56.41
2019-03-03T22:31:41.153Z,56.24
2019-03-03T22:34:15.155Z,56.85
2019-03-03T22:36:47.710Z,57.31
2019-03-03T22:39:21.664Z,56.85
2019-03-03T22:41:55.611Z,55.42
2019-03-03T22:44:30.693Z,55.31
2019-03-03T22:47:02.331Z,56.79
2019-03-03T22:49:36.995Z,57.01
2019-03-03T22:52:10.741Z,57.76
2019-03-03T22:54:41.946Z,57.72
2019-03-03T22:57:15.199Z,57.93
2019-03-03T22:59:49.163Z,56.41
2019-03-03T23:02:23.324Z,56.05
2019-03-03T23:05:21.655Z,57.20
2019-03-03T23:08:10.851Z,56.66
2019-03-03T23:11:13.303Z,55.83
2019-03-03T23:14:06.539Z,56.13
2019-03-03T23:17:19.123Z,54.97
2019-03-03T23:20:21.086Z,55.48
2019-03-03T23:23:35.373Z,55.89
2019-03-03T23:26:16.392Z,55.43
2019-03-03T23:28:41.222Z,54.66
2019-03-03T23:31:15.405Z,54.45
2019-03-03T23:33:48.340Z,54.73
2019-03-03T23:36:21.251Z,54.07
2019-03-03T23:38:54.281Z,54.31
2019-03-03T23:41:26.575Z,56.21
2019-03-03T23:43:59.210Z,57.17
2019-03-03T23:46:31.447Z,56.76
2019-03-03T23:49:03.365Z,56.86
2019-03-03T23:51:35.481Z,55.64
2019-03-03T23:54:08.533Z,55.82
2019-03-03T23:56:41.357Z,56.26
2019-03-03T23:59:14.267Z,56.11
